Collinsville, Connecticut
Current Conditions -  °F | °C
As of 11:51 AM on Tuesday 27 Jan 2015 (Local Time) from KBDL Reporting Station
Overcast Overcast  
Wind Chill:   Ceiling: 3900
Heat Index: 24°   Visibility: 7mi
Dew Point: 13°   Wind: 23mph
Humidity: 62%   Direction: 360°N
Pressure: 29.59"   Gusts: 31mph
Location:  41.82°N, 72.92°W
Report Text: KBDL 271651Z 36020G27KT 7SM OVC039 M04/M11 A2959 RMK AO2 PK WND 36033/1558 SLP021 SNE07 P0000 T10441106
Loading
Personal Weather Stations






























Interactive Weather Map New forecast layout! Learn more

10-Day Weather Forecast

Advertisements
Track Severe Weather on mobile